Time;durP1;ratioP1;P1;durP2;ratioP2;P2;SDS_P1;SDS_P2;PMS_P1;PMS_P2;Temp;Humidity;BMP_temperature;BMP_pressure;BME280_temperature;BME280_humidity;BME280_pressure;Samples;Min_cycle;Max_cycle;Signal;HPM_P1;HPM_P2
2022/08/13 00:01:15;;;;;;;3.45;1.90;;;18.70;99.90;;;;;;5054554;28;20056;-70
2022/08/13 00:03:42;;;;;;;5.65;2.25;;;18.60;99.90;;;;;;5054861;28;20092;-69
2022/08/13 00:06:08;;;;;;;6.88;2.45;;;18.60;99.90;;;;;;5054486;28;20048;-70
2022/08/13 00:08:35;;;;;;;4.82;2.10;;;18.60;99.90;;;;;;5054516;28;20319;-70
2022/08/13 00:11:02;;;;;;;5.93;2.05;;;18.60;99.90;;;;;;5054531;28;20049;-70
2022/08/13 00:13:28;;;;;;;6.30;1.88;;;18.60;99.90;;;;;;5053539;28;20423;-69
2022/08/13 00:15:54;;;;;;;5.97;1.90;;;18.50;99.90;;;;;;5054042;28;20128;-70
2022/08/13 00:18:21;;;;;;;5.35;2.10;;;18.50;99.90;;;;;;5054222;28;20372;-69
2022/08/13 00:20:55;;;;;;;4.88;2.10;;;18.40;99.90;;;;;;5053981;28;20045;-70
2022/08/13 00:23:24;;;;;;;4.05;2.38;;;18.40;99.90;;;;;;5054198;28;20044;-70
2022/08/13 00:25:56;;;;;;;4.03;1.90;;;18.40;99.90;;;;;;5054239;28;20041;-70
2022/08/13 00:28:25;;;;;;;4.00;2.10;;;18.30;99.90;;;;;;5053284;28;20052;-70
2022/08/13 00:30:51;;;;;;;3.65;2.03;;;18.40;99.90;;;;;;5053094;28;20048;-70
2022/08/13 00:33:19;;;;;;;7.22;2.65;;;18.30;99.90;;;;;;5055118;28;20033;-69
2022/08/13 00:35:48;;;;;;;9.70;2.78;;;18.30;99.90;;;;;;5057778;28;20048;-69
2022/08/13 00:38:16;;;;;;;5.85;2.40;;;18.30;99.90;;;;;;5057734;28;20053;-70
2022/08/13 00:40:47;;;;;;;3.95;2.33;;;18.30;99.90;;;;;;5057500;28;20147;-69
2022/08/13 00:43:14;;;;;;;3.42;2.00;;;18.20;99.90;;;;;;5057486;28;20075;-69
2022/08/13 00:45:40;;;;;;;7.60;2.17;;;18.20;99.90;;;;;;5057388;28;20131;-69
2022/08/13 00:50:52;;;;;;;4.18;2.25;;;18.20;99.90;;;;;;5057654;28;20060;-70
2022/08/13 00:53:19;;;;;;;5.78;2.05;;;18.20;99.90;;;;;;5057165;28;20044;-70
2022/08/13 00:55:48;;;;;;;4.97;2.20;;;18.20;99.90;;;;;;5057220;28;20041;-69
2022/08/13 00:58:17;;;;;;;5.65;2.00;;;18.10;99.90;;;;;;5057426;28;20133;-69
2022/08/13 01:00:48;;;;;;;4.03;2.38;;;18.10;99.90;;;;;;5057087;28;20041;-69
2022/08/13 01:03:16;;;;;;;3.45;2.10;;;18.10;99.90;;;;;;5057002;28;20056;-70
2022/08/13 01:05:44;;;;;;;7.35;2.33;;;18.00;99.90;;;;;;5056978;28;20064;-69
2022/08/13 01:08:11;;;;;;;5.35;2.00;;;18.10;99.90;;;;;;5040193;28;20410;-70
2022/08/13 01:10:38;;;;;;;5.78;2.40;;;18.10;99.90;;;;;;5056735;28;20072;-69
2022/08/13 01:13:09;;;;;;;4.95;3.03;;;18.00;99.90;;;;;;5056879;28;20560;-69
2022/08/13 01:15:37;;;;;;;3.92;2.03;;;18.00;99.90;;;;;;5056817;28;20488;-71
2022/08/13 01:18:03;;;;;;;7.43;2.42;;;18.00;99.90;;;;;;5056618;28;20048;-69
2022/08/13 01:20:32;;;;;;;11.00;2.65;;;18.00;99.90;;;;;;5057473;28;20416;-69
2022/08/13 01:22:58;;;;;;;7.68;3.13;;;18.00;99.90;;;;;;5057128;28;20345;-69
2022/08/13 01:25:25;;;;;;;4.47;2.70;;;17.90;99.90;;;;;;5038634;28;20044;-69
2022/08/13 01:27:52;;;;;;;4.40;2.30;;;17.90;99.90;;;;;;5056822;28;20041;-70
2022/08/13 01:30:21;;;;;;;7.25;2.70;;;17.90;99.90;;;;;;5057054;28;20396;-70
2022/08/13 01:32:47;;;;;;;5.18;2.72;;;17.80;99.90;;;;;;5038806;28;20048;-69
2022/08/13 01:35:15;;;;;;;6.38;2.80;;;17.90;99.90;;;;;;5056243;28;20449;-69
2022/08/13 01:37:41;;;;;;;4.97;2.67;;;17.80;99.90;;;;;;5055762;28;20045;-69
2022/08/13 01:40:08;;;;;;;5.07;2.90;;;17.90;99.90;;;;;;5056814;28;20048;-69
2022/08/13 01:42:42;;;;;;;5.28;2.80;;;17.80;99.90;;;;;;5056667;28;20041;-68
2022/08/13 01:45:10;;;;;;;4.65;2.83;;;17.80;99.90;;;;;;5055785;28;20045;-70
2022/08/13 01:50:29;;;;;;;5.65;3.15;;;17.80;99.90;;;;;;5056390;28;20095;-70
2022/08/13 01:53:01;;;;;;;8.10;3.55;;;17.80;99.90;;;;;;5056366;28;20041;-70
2022/08/13 01:55:40;;;;;;;4.28;2.78;;;17.80;99.90;;;;;;5056430;28;20045;-69
2022/08/13 01:58:09;;;;;;;7.47;3.85;;;17.70;99.90;;;;;;5056554;28;20077;-69
2022/08/13 02:00:36;;;;;;;7.05;3.03;;;17.80;99.90;;;;;;5056219;28;20458;-69
2022/08/13 02:03:04;;;;;;;7.82;3.05;;;17.80;99.90;;;;;;5055537;28;20063;-70
2022/08/13 02:05:30;;;;;;;7.43;3.05;;;17.80;99.90;;;;;;5056070;28;20412;-70
2022/08/13 02:07:57;;;;;;;5.13;3.47;;;17.80;99.90;;;;;;5056183;28;20051;-69
2022/08/13 02:10:23;;;;;;;4.85;3.33;;;17.80;99.90;;;;;;5056589;28;20040;-69
2022/08/13 02:12:49;;;;;;;7.57;3.15;;;17.80;99.90;;;;;;5055747;28;20128;-70
2022/08/13 02:15:16;;;;;;;4.78;3.22;;;17.70;99.90;;;;;;5056251;28;20404;-70
2022/08/13 02:17:42;;;;;;;8.65;3.33;;;17.80;99.90;;;;;;5055245;28;20044;-69
2022/08/13 02:20:17;;;;;;;4.82;2.72;;;17.70;99.90;;;;;;5055800;28;20045;-69
2022/08/13 02:22:48;;;;;;;6.28;3.47;;;17.70;99.90;;;;;;5038091;28;20084;-69
2022/08/13 02:25:16;;;;;;;6.22;2.95;;;17.70;99.90;;;;;;5055494;28;20045;-70
2022/08/13 02:27:42;;;;;;;7.13;3.30;;;17.60;99.90;;;;;;5055686;28;20059;-69
2022/08/13 02:30:10;;;;;;;5.90;3.20;;;17.60;99.90;;;;;;5055579;28;20088;-69
2022/08/13 02:32:37;;;;;;;6.53;3.83;;;17.60;99.90;;;;;;5054964;28;20044;-69
2022/08/13 02:35:04;;;;;;;6.47;3.47;;;17.60;99.90;;;;;;5037632;28;20049;-69
2022/08/13 02:37:32;;;;;;;7.40;3.38;;;17.50;99.90;;;;;;5055376;28;20051;-70
2022/08/13 02:39:58;;;;;;;8.52;3.70;;;17.50;99.90;;;;;;5055264;28;20071;-70
2022/08/13 02:42:25;;;;;;;7.15;3.42;;;17.50;99.90;;;;;;5055512;28;20045;-70
2022/08/13 02:44:51;;;;;;;9.32;3.40;;;17.40;99.90;;;;;;5055168;28;20124;-70
2022/08/13 02:47:19;;;;;;;7.38;3.83;;;17.40;99.90;;;;;;5021296;28;20049;-70
2022/08/13 02:49:48;;;;;;;5.55;3.75;;;17.40;99.90;;;;;;5055386;28;20092;-70
2022/08/13 02:52:14;;;;;;;5.07;3.20;;;17.30;99.90;;;;;;5054970;28;20140;-70
2022/08/13 02:54:45;;;;;;;5.28;3.63;;;17.30;99.90;;;;;;5055191;28;20060;-70
2022/08/13 02:57:10;;;;;;;10.90;4.07;;;17.30;99.90;;;;;;5054733;28;20056;-70
2022/08/13 02:59:37;;;;;;;5.22;3.45;;;17.30;99.90;;;;;;5054992;28;20378;-69
2022/08/13 03:02:04;;;;;;;6.00;3.95;;;17.30;99.90;;;;;;5054674;28;20048;-70
2022/08/13 03:04:30;;;;;;;5.18;3.28;;;17.30;99.90;;;;;;5054731;28;20057;-69
2022/08/13 03:06:56;;;;;;;6.85;3.35;;;17.30;99.90;;;;;;5055542;28;20041;-70
2022/08/13 03:09:22;;;;;;;4.68;3.10;;;17.30;99.90;;;;;;5055144;28;20358;-69
2022/08/13 03:11:49;;;;;;;7.65;3.38;;;17.20;99.90;;;;;;5037854;28;20128;-70
2022/08/13 03:14:16;;;;;;;6.32;3.67;;;17.20;99.90;;;;;;5055060;28;20520;-70
2022/08/13 03:16:42;;;;;;;5.25;3.15;;;17.10;99.90;;;;;;5054260;28;20480;-70
2022/08/13 03:19:08;;;;;;;6.38;3.30;;;17.10;99.90;;;;;;5054208;28;20072;-69
2022/08/13 03:21:37;;;;;;;5.07;3.00;;;17.10;99.90;;;;;;5054465;28;20056;-70
2022/08/13 03:24:04;;;;;;;5.57;3.45;;;17.00;99.90;;;;;;5054735;28;20059;-70
2022/08/13 03:26:31;;;;;;;8.45;3.33;;;17.00;99.90;;;;;;5054654;28;20049;-69
2022/08/13 03:28:58;;;;;;;5.65;3.33;;;16.90;99.90;;;;;;5054704;28;20096;-69
2022/08/13 03:31:24;;;;;;;4.93;3.35;;;16.90;99.90;;;;;;5054437;28;20084;-69
2022/08/13 03:33:50;;;;;;;6.13;3.50;;;16.90;99.90;;;;;;5055664;28;20438;-69
2022/08/13 03:36:16;;;;;;;4.97;3.25;;;16.90;99.90;;;;;;5054844;28;20055;-70
2022/08/13 03:38:42;;;;;;;6.65;3.65;;;16.80;99.90;;;;;;5054610;28;20119;-69
2022/08/13 03:41:11;;;;;;;6.22;3.70;;;16.80;99.90;;;;;;5054474;28;20044;-70
2022/08/13 03:43:37;;;;;;;5.40;3.50;;;16.80;99.90;;;;;;5054571;28;20040;-70
2022/08/13 03:46:03;;;;;;;10.98;3.63;;;16.70;99.90;;;;;;5053911;28;20457;-70
2022/08/13 03:48:29;;;;;;;5.80;4.40;;;16.70;99.90;;;;;;5036961;28;20060;-69
2022/08/13 03:50:55;;;;;;;7.07;3.78;;;16.80;99.90;;;;;;5054569;28;20041;-70
2022/08/13 03:53:21;;;;;;;6.07;4.10;;;16.70;99.90;;;;;;5054263;28;20454;-69
2022/08/13 03:55:48;;;;;;;7.63;4.30;;;16.70;99.90;;;;;;5054516;28;20041;-70
2022/08/13 03:58:15;;;;;;;6.95;3.65;;;16.60;99.90;;;;;;5054544;28;20060;-70
2022/08/13 04:00:47;;;;;;;6.78;4.82;;;16.80;99.90;;;;;;5054117;28;20115;-70
2022/08/13 04:03:16;;;;;;;6.23;3.70;;;16.70;99.90;;;;;;5054725;28;20110;-70
2022/08/13 04:05:43;;;;;;;5.68;3.70;;;16.80;99.90;;;;;;5054293;28;20072;-69
2022/08/13 04:08:10;;;;;;;4.85;3.50;;;16.80;99.90;;;;;;5057713;28;20045;-69
2022/08/13 04:10:36;;;;;;;5.68;3.45;;;16.80;99.90;;;;;;5058294;28;20365;-70
2022/08/13 04:13:03;;;;;;;5.10;3.67;;;16.70;99.90;;;;;;5058152;28;20045;-69
2022/08/13 04:15:28;;;;;;;6.63;3.80;;;16.70;99.90;;;;;;5057167;28;20063;-70
2022/08/13 04:17:54;;;;;;;9.63;3.70;;;16.70;99.90;;;;;;5040961;28;20049;-69
2022/08/13 04:20:21;;;;;;;18.73;3.92;;;16.70;99.90;;;;;;5058301;28;20114;-70
2022/08/13 04:22:47;;;;;;;9.52;3.45;;;16.60;99.90;;;;;;5058068;28;20053;-69
2022/08/13 04:25:13;;;;;;;5.53;3.60;;;16.70;99.90;;;;;;5057844;28;20084;-69
2022/08/13 04:27:39;;;;;;;8.32;4.28;;;16.60;99.90;;;;;;5040519;28;20428;-69
2022/08/13 04:30:05;;;;;;;6.50;3.80;;;16.60;99.90;;;;;;5057345;28;20033;-69
2022/08/13 04:32:41;;;;;;;7.03;3.72;;;16.60;99.90;;;;;;5057770;28;20376;-70
2022/08/13 04:35:07;;;;;;;6.03;3.70;;;16.60;99.90;;;;;;5058012;28;20080;-70
2022/08/13 04:37:33;;;;;;;7.32;3.78;;;16.60;99.90;;;;;;5057976;28;20071;-70
2022/08/13 04:39:59;;;;;;;16.63;3.97;;;16.50;99.90;;;;;;5057754;28;20064;-70
2022/08/13 04:42:24;;;;;;;6.85;3.92;;;16.60;99.90;;;;;;5057506;28;20053;-69
2022/08/13 04:44:50;;;;;;;15.07;3.97;;;16.60;99.90;;;;;;5057168;28;20503;-69
2022/08/13 04:47:17;;;;;;;6.20;3.88;;;16.60;99.90;;;;;;5057057;28;20053;-70
2022/08/13 04:49:42;;;;;;;5.40;3.45;;;16.50;99.90;;;;;;5057181;28;20103;-69
2022/08/13 04:52:08;;;;;;;6.80;3.53;;;16.50;99.90;;;;;;5057383;28;20048;-70
2022/08/13 04:54:33;;;;;;;7.03;3.53;;;16.60;99.90;;;;;;5057526;28;20077;-70
2022/08/13 04:56:59;;;;;;;5.20;3.72;;;16.70;99.90;;;;;;5057483;28;20051;-70
2022/08/13 04:59:24;;;;;;;9.95;4.15;;;16.70;99.90;;;;;;5056732;28;20449;-70
2022/08/13 05:01:50;;;;;;;4.65;3.20;;;16.60;99.90;;;;;;5056890;28;20040;-69
2022/08/13 05:04:17;;;;;;;6.30;4.05;;;16.70;99.90;;;;;;5057359;28;20051;-69
2022/08/13 05:06:43;;;;;;;5.43;3.83;;;16.70;99.90;;;;;;5057106;28;20114;-69
2022/08/13 05:09:09;;;;;;;5.90;3.55;;;16.80;99.90;;;;;;5039833;28;20052;-69
2022/08/13 05:11:35;;;;;;;5.93;4.03;;;16.90;99.90;;;;;;5056814;28;20095;-70
2022/08/13 05:14:00;;;;;;;8.50;4.45;;;17.00;99.90;;;;;;5057154;28;20102;-70
2022/08/13 05:16:26;;;;;;;7.80;4.50;;;17.10;99.90;;;;;;5056408;28;20502;-69
2022/08/13 05:18:55;;;;;;;6.85;4.10;;;17.10;99.90;;;;;;5055969;28;20095;-70
2022/08/13 05:21:22;;;;;;;8.98;4.05;;;17.20;99.90;;;;;;5057240;28;20441;-70
2022/08/13 05:23:55;;;;;;;6.10;4.28;;;17.20;99.90;;;;;;5056989;28;20045;-70
2022/08/13 05:26:24;;;;;;;;;;;17.30;99.90;;;;;;5057062;28;20063;-69
2022/08/13 05:28:51;;;;;;;6.38;4.28;;;17.40;99.90;;;;;;5055961;28;20332;-70
2022/08/13 05:31:17;;;;;;;6.68;3.88;;;17.40;99.90;;;;;;5056879;28;20384;-69
2022/08/13 05:33:43;;;;;;;6.40;4.50;;;17.50;99.90;;;;;;5056496;28;20368;-68
2022/08/13 05:36:09;;;;;;;7.32;5.07;;;17.50;99.90;;;;;;5056628;28;20053;-69
2022/08/13 05:38:36;;;;;;;7.20;4.05;;;17.60;99.90;;;;;;5056719;28;20476;-68
2022/08/13 05:41:05;;;;;;;7.47;4.07;;;17.50;99.90;;;;;;5056538;28;20045;-68
2022/08/13 05:43:35;;;;;;;7.75;4.32;;;17.70;99.90;;;;;;5056354;28;20049;-68
2022/08/13 05:46:05;;;;;;;6.18;4.07;;;18.00;99.90;;;;;;5038812;28;20067;-70
2022/08/13 05:48:35;;;;;;;8.57;3.78;;;18.30;99.90;;;;;;5056264;28;20068;-69
2022/08/13 05:51:03;;;;;;;4.90;3.60;;;19.30;99.90;;;;;;5038712;28;20453;-70
2022/08/13 05:53:32;;;;;;;6.00;4.10;;;20.70;99.90;;;;;;5038153;28;20346;-69
2022/08/13 05:55:58;;;;;;;12.50;4.18;;;22.00;99.30;;;;;;5056720;28;20072;-69
2022/08/13 05:58:24;;;;;;;7.13;3.60;;;23.40;97.00;;;;;;5056085;28;20330;-70
2022/08/13 06:03:37;;;;;;;6.18;3.25;;;24.80;93.20;;;;;;5055928;28;20048;-69
2022/08/13 06:06:07;;;;;;;5.10;3.40;;;25.30;93.30;;;;;;5055704;28;20179;-69
2022/08/13 06:08:36;;;;;;;7.32;3.38;;;26.10;92.20;;;;;;5055834;28;20053;-69
2022/08/13 06:11:15;;;;;;;6.20;2.97;;;26.60;91.80;;;;;;5055988;28;20055;-70
2022/08/13 06:13:44;;;;;;;5.93;3.22;;;27.00;90.90;;;;;;5056647;28;20040;-69
2022/08/13 06:16:12;;;;;;;5.22;3.30;;;27.40;91.30;;;;;;5036777;28;20422;-67
2022/08/13 06:18:43;;;;;;;7.50;2.90;;;27.40;90.10;;;;;;5037668;28;20106;-69
2022/08/13 06:21:13;;;;;;;6.03;2.80;;;27.90;90.20;;;;;;5055626;28;20140;-69
2022/08/13 06:23:40;;;;;;;5.75;2.50;;;28.40;89.20;;;;;;5055613;28;20044;-69
2022/08/13 06:26:08;;;;;;;4.95;3.10;;;29.00;89.30;;;;;;5055548;28;20040;-69
2022/08/13 06:28:35;;;;;;;5.65;2.78;;;29.10;85.20;;;;;;5055356;28;20364;-69
2022/08/13 06:31:07;;;;;;;4.75;2.53;;;29.10;87.50;;;;;;5055357;28;20049;-69
2022/08/13 06:33:36;;;;;;;5.47;2.80;;;29.30;84.90;;;;;;5055874;28;20123;-70
2022/08/13 06:36:10;;;;;;;5.55;2.42;;;29.40;85.50;;;;;;5055646;28;20056;-69
2022/08/13 06:38:45;;;;;;;6.03;2.67;;;29.80;84.00;;;;;;5055417;28;20102;-69
2022/08/13 06:41:12;;;;;;;6.00;3.00;;;30.00;85.30;;;;;;5054788;28;20515;-68
2022/08/13 06:43:40;;;;;;;7.20;3.03;;;30.20;82.40;;;;;;5052585;28;20041;-68
2022/08/13 06:46:07;;;;;;;4.55;2.80;;;30.30;83.50;;;;;;5051770;28;20114;-68
2022/08/13 06:48:34;;;;;;;7.57;2.75;;;30.20;83.60;;;;;;5054937;28;20449;-68
2022/08/13 06:51:07;;;;;;;4.72;2.50;;;30.40;83.80;;;;;;5055496;28;20114;-69
2022/08/13 06:53:35;;;;;;;5.30;2.08;;;30.70;82.50;;;;;;5055206;28;20083;-69
2022/08/13 06:56:03;;;;;;;5.00;2.20;;;31.00;83.80;;;;;;5054914;28;20461;-69
2022/08/13 06:58:30;;;;;;;6.78;2.80;;;31.60;83.30;;;;;;5055271;28;20445;-69
2022/08/13 07:00:56;;;;;;;6.30;2.25;;;31.40;82.40;;;;;;5054696;28;20041;-68
2022/08/13 07:03:28;;;;;;;4.60;2.38;;;30.70;82.10;;;;;;5054499;28;20065;-69
2022/08/13 07:05:56;;;;;;;7.65;2.45;;;29.40;82.60;;;;;;5054796;28;20037;-69
2022/08/13 07:08:24;;;;;;;3.85;2.20;;;28.50;85.00;;;;;;5054785;28;20071;-69
2022/08/13 07:11:21;;;;;;;4.70;2.35;;;27.50;85.30;;;;;;5055226;28;20535;-69
2022/08/13 07:13:43;;;;;;;5.10;2.15;;;27.10;86.80;;;;;;5054521;28;20085;-69
2022/08/13 07:16:10;;;;;;;9.02;2.70;;;26.60;87.70;;;;;;5055185;28;20346;-70
2022/08/13 07:18:37;;;;;;;6.35;2.20;;;26.20;88.30;;;;;;5054836;28;20049;-69
2022/08/13 07:21:07;;;;;;;6.00;1.75;;;26.00;90.00;;;;;;5054768;28;20045;-70
2022/08/13 07:23:33;;;;;;;6.93;2.10;;;26.30;90.30;;;;;;5054550;28;20052;-70
2022/08/13 07:26:00;;;;;;;3.53;1.70;;;27.20;89.60;;;;;;5054953;28;20380;-68
2022/08/13 07:28:30;;;;;;;5.50;1.42;;;28.40;88.70;;;;;;5054567;28;20442;-70
2022/08/13 07:30:58;;;;;;;4.38;1.90;;;29.10;86.50;;;;;;5054697;28;20047;-70
2022/08/13 07:33:24;;;;;;;4.28;1.70;;;29.80;85.50;;;;;;5054257;28;20068;-70
2022/08/13 07:35:50;;;;;;;3.90;1.58;;;30.50;85.40;;;;;;5054145;28;20457;-70
2022/08/13 07:38:16;;;;;;;3.78;1.20;;;31.00;85.70;;;;;;5054185;28;20064;-70
2022/08/13 07:40:45;;;;;;;5.78;1.80;;;31.50;83.50;;;;;;5054896;28;20072;-70
2022/08/13 07:43:16;;;;;;;3.90;1.38;;;32.10;83.60;;;;;;5058044;28;20099;-69
2022/08/13 07:45:41;;;;;;;2.33;1.30;;;32.60;83.00;;;;;;5058816;28;20033;-69
2022/08/13 07:48:09;;;;;;;3.47;1.20;;;33.00;82.30;;;;;;5058364;28;20049;-69
2022/08/13 07:50:36;;;;;;;2.28;1.15;;;33.40;81.50;;;;;;5058382;28;20045;-69
2022/08/13 07:53:02;;;;;;;6.78;1.10;;;33.60;81.30;;;;;;5058467;28;20099;-70
2022/08/13 07:55:28;;;;;;;2.30;1.20;;;33.80;78.30;;;;;;5058258;28;20437;-69
2022/08/13 07:57:54;;;;;;;3.05;1.48;;;33.90;78.30;;;;;;5057859;28;20045;-70
2022/08/13 08:00:25;;;;;;;3.25;1.10;;;33.60;76.50;;;;;;5038302;28;20064;-70
2022/08/13 08:03:02;;;;;;;2.38;1.15;;;33.70;78.30;;;;;;5038365;28;20054;-69
2022/08/13 08:05:34;;;;;;;2.97;1.23;;;33.30;78.00;;;;;;5038179;28;20050;-69
2022/08/13 08:08:00;;;;;;;6.82;1.50;;;33.00;77.40;;;;;;5038345;28;20052;-70
2022/08/13 08:10:27;;;;;;;8.80;1.33;;;32.90;78.70;;;;;;5038411;28;20366;-70
2022/08/13 08:12:59;;;;;;;3.25;1.00;;;32.70;78.30;;;;;;5040162;28;20471;-70
2022/08/13 08:15:26;;;;;;;2.20;1.05;;;32.40;78.50;;;;;;5057693;28;20377;-68
2022/08/13 08:17:53;;;;;;;2.90;0.90;;;32.50;77.00;;;;;;5057311;28;20445;-70
2022/08/13 08:20:21;;;;;;;2.40;1.10;;;33.00;77.80;;;;;;5057413;28;20471;-71
2022/08/13 08:22:49;;;;;;;5.45;1.08;;;33.40;77.90;;;;;;5058134;28;20041;-70
2022/08/13 08:25:19;;;;;;;2.08;1.00;;;33.60;77.70;;;;;;5057609;28;20076;-70
2022/08/13 08:27:47;;;;;;;3.03;1.40;;;34.00;78.50;;;;;;5057705;28;20052;-70
2022/08/13 08:30:20;;;;;;;2.63;1.05;;;34.50;77.20;;;;;;5057823;28;20053;-72
2022/08/13 08:32:52;;;;;;;6.88;1.50;;;34.50;74.80;;;;;;5057708;28;20056;-71
2022/08/13 08:35:18;;;;;;;;;;;34.70;76.00;;;;;;5058257;28;20049;-69
2022/08/13 08:43:14;;;;;;;4.22;0.95;;;34.50;75.50;;;;;;5057424;28;20060;-70
2022/08/13 08:45:42;;;;;;;4.30;0.88;;;34.70;74.20;;;;;;5057429;28;20040;-70
2022/08/13 08:48:09;;;;;;;5.15;1.00;;;34.40;73.90;;;;;;5057618;28;20037;-69
2022/08/13 08:50:35;;;;;;;5.50;0.85;;;34.40;75.00;;;;;;5057194;28;20033;-69
2022/08/13 08:53:19;;;;;;;6.53;1.08;;;34.30;74.90;;;;;;5056300;28;20124;-69
2022/08/13 08:55:46;;;;;;;2.70;0.90;;;34.50;75.10;;;;;;5057133;28;20045;-70
2022/08/13 08:58:12;;;;;;;2.85;1.00;;;34.20;74.30;;;;;;5057543;28;20123;-69
2022/08/13 09:00:39;;;;;;;2.03;0.82;;;34.10;73.80;;;;;;5057450;28;20373;-71
2022/08/13 09:03:09;;;;;;;2.40;0.80;;;33.90;72.70;;;;;;5057397;28;20466;-70
2022/08/13 09:05:35;;;;;;;4.20;1.35;;;33.70;73.50;;;;;;5056564;28;20096;-70
2022/08/13 09:08:03;;;;;;;3.63;1.00;;;33.30;74.70;;;;;;5056843;28;20069;-69
2022/08/13 09:10:33;;;;;;;2.35;1.00;;;33.00;74.60;;;;;;5055235;28;20045;-69
2022/08/13 09:13:02;;;;;;;7.15;0.90;;;32.70;74.20;;;;;;5056907;28;20453;-71
2022/08/13 09:15:29;;;;;;;5.75;1.10;;;32.20;74.20;;;;;;5056995;28;20075;-71
2022/08/13 09:17:56;;;;;;;1.73;0.90;;;32.00;75.30;;;;;;5056428;28;20045;-70
2022/08/13 09:20:24;;;;;;;1.40;0.90;;;31.80;75.40;;;;;;5057109;28;20048;-70
2022/08/13 09:23:03;;;;;;;2.25;0.90;;;31.50;74.20;;;;;;5056540;28;20037;-71
2022/08/13 09:25:30;;;;;;;2.65;1.00;;;31.30;74.80;;;;;;5056699;28;20159;-70
2022/08/13 09:27:57;;;;;;;2.78;0.90;;;30.80;74.00;;;;;;5056739;28;20084;-70
2022/08/13 09:30:23;;;;;;;5.50;1.48;;;30.60;75.00;;;;;;5056497;28;20041;-70
2022/08/13 09:32:56;;;;;;;1.63;0.80;;;30.60;74.40;;;;;;5056976;28;20041;-69
2022/08/13 09:35:22;;;;;;;;;;;30.70;75.20;;;;;;5056414;28;20041;-70
2022/08/13 09:37:50;;;;;;;4.45;1.23;;;30.90;74.80;;;;;;5056545;28;19924;-68
2022/08/13 09:40:17;;;;;;;2.03;1.10;;;31.00;74.00;;;;;;5056583;28;20076;-69
2022/08/13 09:43:07;;;;;;;3.42;1.00;;;30.90;73.80;;;;;;5032577;28;20064;-70
2022/08/13 09:45:33;;;;;;;3.47;1.30;;;31.50;74.50;;;;;;5056139;28;20045;-70
2022/08/13 09:47:59;;;;;;;3.67;1.05;;;31.90;74.10;;;;;;5056105;28;20194;-71
2022/08/13 09:50:26;;;;;;;2.03;1.15;;;32.20;73.10;;;;;;5055988;28;20045;-70
2022/08/13 09:52:52;;;;;;;2.00;1.00;;;31.90;72.90;;;;;;5056379;28;20084;-68
2022/08/13 09:55:22;;;;;;;8.30;1.10;;;31.80;73.50;;;;;;5056031;28;20151;-70
2022/08/13 09:57:59;;;;;;;3.63;1.48;;;31.50;73.50;;;;;;5056093;28;20076;-69
2022/08/13 10:00:29;;;;;;;4.90;1.40;;;31.10;74.70;;;;;;5056204;28;20369;-69
2022/08/13 10:02:59;;;;;;;3.13;1.15;;;31.00;74.60;;;;;;5056322;28;20057;-70
2022/08/13 10:05:26;;;;;;;2.47;1.20;;;30.90;74.20;;;;;;5055122;28;20484;-68
2022/08/13 10:07:54;;;;;;;4.35;1.13;;;30.70;73.80;;;;;;5055755;28;20044;-68
2022/08/13 10:10:20;;;;;;;1.90;1.10;;;30.60;73.90;;;;;;5055706;28;20351;-68
2022/08/13 10:12:46;;;;;;;2.20;1.25;;;30.60;73.30;;;;;;5056010;28;20445;-69
2022/08/13 10:15:12;;;;;;;5.22;1.30;;;30.70;72.90;;;;;;5055846;28;20041;-67
2022/08/13 10:17:52;;;;;;;3.00;1.38;;;30.70;73.50;;;;;;5038638;28;20045;-69
2022/08/13 10:20:24;;;;;;;3.42;1.40;;;30.80;74.00;;;;;;5055542;28;20361;-69
2022/08/13 10:22:53;;;;;;;4.32;1.40;;;30.90;72.90;;;;;;5055683;28;20045;-69
2022/08/13 10:25:19;;;;;;;3.58;1.20;;;30.60;72.30;;;;;;5055327;28;20476;-69
2022/08/13 10:27:47;;;;;;;4.93;1.50;;;30.70;73.00;;;;;;5055855;28;20056;-68
2022/08/13 10:30:13;;;;;;;3.55;1.20;;;30.90;73.00;;;;;;5055424;28;20094;-71
2022/08/13 10:32:39;;;;;;;1.88;1.20;;;30.90;73.10;;;;;;5055548;28;20071;-69
2022/08/13 10:35:05;;;;;;;6.57;1.40;;;30.80;72.10;;;;;;5054311;28;20465;-69
2022/08/13 10:37:31;;;;;;;3.72;1.20;;;30.80;72.10;;;;;;5054203;28;20041;-69
2022/08/13 10:39:58;;;;;;;5.13;1.17;;;30.80;71.80;;;;;;5055137;28;20140;-69
2022/08/13 10:42:24;;;;;;;5.22;1.23;;;30.90;72.50;;;;;;5055094;28;20084;-68
2022/08/13 10:44:52;;;;;;;3.22;1.10;;;30.90;72.60;;;;;;5055235;28;20076;-68
2022/08/13 10:47:24;;;;;;;2.08;1.15;;;31.00;72.90;;;;;;5055450;28;20514;-68
2022/08/13 10:49:51;;;;;;;4.32;1.10;;;31.00;72.30;;;;;;5054909;28;20423;-68
2022/08/13 10:52:20;;;;;;;2.08;1.30;;;30.90;71.50;;;;;;5054769;28;20052;-68
2022/08/13 10:54:46;;;;;;;2.22;1.20;;;30.90;71.70;;;;;;5055066;28;20045;-69
2022/08/13 10:57:14;;;;;;;2.70;1.00;;;31.00;71.60;;;;;;5055371;28;20060;-69
2022/08/13 10:59:41;;;;;;;2.00;0.98;;;31.00;71.30;;;;;;5054944;28;20045;-69
2022/08/13 11:02:07;;;;;;;4.80;1.35;;;31.10;71.20;;;;;;5054409;28;20057;-68
2022/08/13 11:04:36;;;;;;;1.70;1.05;;;31.10;71.00;;;;;;5054947;28;20141;-68
2022/08/13 11:07:03;;;;;;;2.35;1.27;;;31.10;70.40;;;;;;5050446;28;20077;-70
2022/08/13 11:09:29;;;;;;;2.55;0.93;;;31.20;70.90;;;;;;5044219;28;20036;-69
2022/08/13 11:11:59;;;;;;;2.70;1.17;;;31.30;71.60;;;;;;5037557;28;20052;-69
2022/08/13 11:14:29;;;;;;;2.70;1.23;;;31.40;72.00;;;;;;5035284;28;20092;-68
2022/08/13 11:16:58;;;;;;;3.35;1.20;;;31.60;71.30;;;;;;5034103;28;20489;-68
2022/08/13 11:19:27;;;;;;;3.92;1.20;;;31.70;71.50;;;;;;5034927;28;20045;-69
2022/08/13 11:21:53;;;;;;;2.75;1.27;;;31.70;71.10;;;;;;5047916;28;20037;-69
2022/08/13 11:24:19;;;;;;;4.10;1.25;;;31.90;71.20;;;;;;5037209;28;20456;-69
2022/08/13 11:26:47;;;;;;;2.08;1.23;;;32.00;71.40;;;;;;5055084;28;20124;-70
2022/08/13 11:29:13;;;;;;;3.30;1.35;;;32.10;70.50;;;;;;5054602;28;20071;-69
2022/08/13 11:31:39;;;;;;;4.93;1.17;;;32.20;71.00;;;;;;5054456;28;20078;-69
2022/08/13 11:34:05;;;;;;;3.22;1.25;;;32.10;70.10;;;;;;5054109;28;20049;-68
2022/08/13 11:36:31;;;;;;;1.60;1.00;;;32.20;70.80;;;;;;5054647;28;20179;-69
2022/08/13 11:38:56;;;;;;;5.00;1.40;;;32.20;70.10;;;;;;5054613;28;20049;-69
2022/08/13 11:41:22;;;;;;;2.90;1.10;;;32.40;71.10;;;;;;5054481;28;20037;-69
2022/08/13 11:43:49;;;;;;;4.13;1.10;;;32.30;68.40;;;;;;5054483;28;20037;-69
2022/08/13 11:46:16;;;;;;;4.47;1.20;;;32.20;68.60;;;;;;5054543;28;20040;-71
2022/08/13 11:48:42;;;;;;;4.10;1.10;;;32.20;68.70;;;;;;5054254;28;20077;-69
2022/08/13 11:51:08;;;;;;;2.33;1.10;;;32.20;69.80;;;;;;5054432;28;20120;-70
2022/08/13 11:53:34;;;;;;;2.97;1.10;;;32.20;69.70;;;;;;5054389;28;20465;-70
2022/08/13 11:55:59;;;;;;;3.40;1.15;;;32.00;69.40;;;;;;5036666;28;20053;-72
2022/08/13 11:58:25;;;;;;;2.20;1.17;;;32.20;69.40;;;;;;5053941;28;20037;-70
2022/08/13 12:00:53;;;;;;;7.07;1.20;;;32.20;69.20;;;;;;5054475;28;20052;-70
2022/08/13 12:03:19;;;;;;;3.17;0.90;;;32.20;69.30;;;;;;5053655;28;20154;-70
2022/08/13 12:05:45;;;;;;;3.25;1.30;;;32.20;68.70;;;;;;5054624;28;20110;-69
2022/08/13 12:08:18;;;;;;;2.65;1.30;;;32.10;68.70;;;;;;5054371;28;20381;-70
2022/08/13 12:10:44;;;;;;;1.88;0.95;;;32.00;69.00;;;;;;5052947;28;20124;-70
2022/08/13 12:13:10;;;;;;;4.07;1.25;;;32.10;69.80;;;;;;5054090;28;20111;-71
2022/08/13 12:15:35;;;;;;;2.97;1.20;;;32.30;70.20;;;;;;5054137;28;20068;-70
2022/08/13 12:18:01;;;;;;;2.97;1.13;;;32.30;68.90;;;;;;5054301;28;20037;-70
2022/08/13 12:20:27;;;;;;;2.20;1.13;;;32.40;68.60;;;;;;5036544;28;20056;-70
2022/08/13 12:22:55;;;;;;;3.03;1.17;;;32.40;68.00;;;;;;5053995;28;20429;-71
2022/08/13 12:25:22;;;;;;;3.47;1.10;;;32.50;68.50;;;;;;5054130;28;20481;-70
2022/08/13 12:27:48;;;;;;;2.97;1.10;;;32.60;68.00;;;;;;5055196;28;20041;-71
2022/08/13 12:30:14;;;;;;;3.28;1.30;;;32.50;68.20;;;;;;5057611;28;20041;-71
2022/08/13 12:32:39;;;;;;;3.60;1.10;;;32.40;68.80;;;;;;5039022;28;20048;-71
2022/08/13 12:35:05;;;;;;;1.60;1.10;;;32.40;68.50;;;;;;5057633;28;20380;-71
2022/08/13 12:37:31;;;;;;;4.30;1.10;;;32.40;68.40;;;;;;5040106;28;20457;-70
2022/08/13 12:39:57;;;;;;;2.42;1.40;;;32.30;68.10;;;;;;5057677;28;20045;-71
2022/08/13 12:42:25;;;;;;;2.38;1.30;;;32.30;68.30;;;;;;5056590;28;20037;-71
2022/08/13 12:44:52;;;;;;;3.67;1.27;;;32.30;68.40;;;;;;5057750;28;20473;-70
2022/08/13 12:47:18;;;;;;;5.78;1.70;;;32.30;68.50;;;;;;5057371;28;20056;-70
2022/08/13 12:49:43;;;;;;;3.47;1.40;;;32.40;68.20;;;;;;5057418;28;20044;-70
2022/08/13 12:52:09;;;;;;;3.85;1.25;;;32.50;69.30;;;;;;5057379;28;20071;-69
2022/08/13 12:54:35;;;;;;;2.30;1.40;;;32.60;68.70;;;;;;5057636;28;20083;-70
2022/08/13 12:57:00;;;;;;;4.50;1.35;;;32.70;68.80;;;;;;5039512;28;20045;-70
2022/08/13 12:59:26;;;;;;;3.22;1.23;;;32.80;69.00;;;;;;5057604;28;20052;-72
2022/08/13 13:01:54;;;;;;;5.53;1.30;;;32.90;67.90;;;;;;5039815;28;20453;-73
2022/08/13 13:04:22;;;;;;;7.90;1.42;;;33.00;68.20;;;;;;5057087;28;20057;-72